sensor_id;sensor_type;location;lat;lon;timestamp;P1;durP1;ratioP1;P2;durP2;ratioP2
50605;SDS011;36557;53.572;10.170;2022-10-16T00:00:31;5.80;;;3.72;;
50605;SDS011;36557;53.572;10.170;2022-10-16T00:02:57;8.65;;;4.05;;
50605;SDS011;36557;53.572;10.170;2022-10-16T00:05:23;8.18;;;4.60;;
50605;SDS011;36557;53.572;10.170;2022-10-16T00:07:49;6.28;;;4.18;;
50605;SDS011;36557;53.572;10.170;2022-10-16T00:10:14;5.13;;;4.25;;
50605;SDS011;36557;53.572;10.170;2022-10-16T00:12:40;5.80;;;4.60;;
50605;SDS011;36557;53.572;10.170;2022-10-16T00:15:06;7.13;;;4.13;;
50605;SDS011;36557;53.572;10.170;2022-10-16T00:17:32;7.45;;;4.38;;
50605;SDS011;36557;53.572;10.170;2022-10-16T00:19:58;8.82;;;4.30;;
50605;SDS011;36557;53.572;10.170;2022-10-16T00:22:23;9.20;;;4.28;;
50605;SDS011;36557;53.572;10.170;2022-10-16T00:24:49;6.43;;;4.30;;
50605;SDS011;36557;53.572;10.170;2022-10-16T00:27:15;6.65;;;4.47;;
50605;SDS011;36557;53.572;10.170;2022-10-16T00:29:41;5.78;;;4.13;;
50605;SDS011;36557;53.572;10.170;2022-10-16T00:32:07;5.20;;;3.55;;
50605;SDS011;36557;53.572;10.170;2022-10-16T00:34:33;6.68;;;3.90;;
50605;SDS011;36557;53.572;10.170;2022-10-16T00:36:59;6.28;;;4.38;;
50605;SDS011;36557;53.572;10.170;2022-10-16T00:39:25;4.72;;;4.15;;
50605;SDS011;36557;53.572;10.170;2022-10-16T00:41:50;5.80;;;3.67;;
50605;SDS011;36557;53.572;10.170;2022-10-16T00:47:13;6.72;;;4.25;;
50605;SDS011;36557;53.572;10.170;2022-10-16T00:49:50;5.93;;;4.13;;
50605;SDS011;36557;53.572;10.170;2022-10-16T00:52:20;6.20;;;4.00;;
50605;SDS011;36557;53.572;10.170;2022-10-16T00:54:45;4.93;;;3.88;;
50605;SDS011;36557;53.572;10.170;2022-10-16T00:57:12;7.57;;;3.70;;
50605;SDS011;36557;53.572;10.170;2022-10-16T00:59:39;5.90;;;4.00;;
50605;SDS011;36557;53.572;10.170;2022-10-16T01:02:07;5.07;;;4.10;;
50605;SDS011;36557;53.572;10.170;2022-10-16T01:04:36;6.35;;;4.32;;
50605;SDS011;36557;53.572;10.170;2022-10-16T01:12:50;7.38;;;4.32;;
50605;SDS011;36557;53.572;10.170;2022-10-16T01:15:29;5.57;;;4.28;;
50605;SDS011;36557;53.572;10.170;2022-10-16T01:18:04;6.53;;;4.13;;
50605;SDS011;36557;53.572;10.170;2022-10-16T01:20:51;7.43;;;3.97;;
50605;SDS011;36557;53.572;10.170;2022-10-16T01:29:34;6.00;;;4.07;;
50605;SDS011;36557;53.572;10.170;2022-10-16T01:32:08;6.13;;;3.28;;
50605;SDS011;36557;53.572;10.170;2022-10-16T01:34:48;7.80;;;3.20;;
50605;SDS011;36557;53.572;10.170;2022-10-16T01:37:36;5.97;;;2.83;;
50605;SDS011;36557;53.572;10.170;2022-10-16T01:40:10;3.95;;;2.53;;
50605;SDS011;36557;53.572;10.170;2022-10-16T01:42:41;6.63;;;2.75;;
50605;SDS011;36557;53.572;10.170;2022-10-16T01:45:12;4.53;;;2.40;;
50605;SDS011;36557;53.572;10.170;2022-10-16T01:47:40;7.28;;;2.65;;
50605;SDS011;36557;53.572;10.170;2022-10-16T01:50:08;5.65;;;2.13;;
50605;SDS011;36557;53.572;10.170;2022-10-16T01:52:35;6.20;;;2.38;;
50605;SDS011;36557;53.572;10.170;2022-10-16T01:55:05;4.68;;;2.20;;
50605;SDS011;36557;53.572;10.170;2022-10-16T01:57:33;4.40;;;2.55;;
50605;SDS011;36557;53.572;10.170;2022-10-16T02:00:05;2.72;;;2.40;;
50605;SDS011;36557;53.572;10.170;2022-10-16T02:02:35;5.07;;;2.40;;
50605;SDS011;36557;53.572;10.170;2022-10-16T02:05:10;5.38;;;2.88;;
50605;SDS011;36557;53.572;10.170;2022-10-16T02:07:41;5.10;;;2.13;;
50605;SDS011;36557;53.572;10.170;2022-10-16T02:10:07;4.03;;;1.90;;
50605;SDS011;36557;53.572;10.170;2022-10-16T02:12:33;5.68;;;2.20;;
50605;SDS011;36557;53.572;10.170;2022-10-16T02:15:04;7.57;;;2.45;;
50605;SDS011;36557;53.572;10.170;2022-10-16T02:17:31;5.63;;;2.17;;
50605;SDS011;36557;53.572;10.170;2022-10-16T02:19:57;4.75;;;1.90;;
50605;SDS011;36557;53.572;10.170;2022-10-16T02:22:26;5.40;;;1.83;;
50605;SDS011;36557;53.572;10.170;2022-10-16T02:24:58;2.60;;;1.90;;
50605;SDS011;36557;53.572;10.170;2022-10-16T02:32:35;3.03;;;1.55;;
50605;SDS011;36557;53.572;10.170;2022-10-16T02:35:05;5.38;;;2.00;;
50605;SDS011;36557;53.572;10.170;2022-10-16T02:37:32;3.30;;;1.88;;
50605;SDS011;36557;53.572;10.170;2022-10-16T02:39:58;3.58;;;1.70;;
50605;SDS011;36557;53.572;10.170;2022-10-16T02:42:28;3.60;;;1.80;;
50605;SDS011;36557;53.572;10.170;2022-10-16T02:44:58;3.63;;;1.58;;
50605;SDS011;36557;53.572;10.170;2022-10-16T02:47:24;5.07;;;1.60;;
50605;SDS011;36557;53.572;10.170;2022-10-16T02:49:50;2.00;;;1.50;;
50605;SDS011;36557;53.572;10.170;2022-10-16T02:52:16;2.90;;;1.30;;
50605;SDS011;36557;53.572;10.170;2022-10-16T02:54:41;2.75;;;1.30;;
50605;SDS011;36557;53.572;10.170;2022-10-16T02:57:07;4.93;;;1.77;;
50605;SDS011;36557;53.572;10.170;2022-10-16T02:59:33;5.55;;;1.42;;
50605;SDS011;36557;53.572;10.170;2022-10-16T03:01:58;3.47;;;1.55;;
50605;SDS011;36557;53.572;10.170;2022-10-16T03:04:24;4.28;;;1.30;;
50605;SDS011;36557;53.572;10.170;2022-10-16T03:06:50;2.13;;;1.35;;
50605;SDS011;36557;53.572;10.170;2022-10-16T03:09:15;3.05;;;1.20;;
50605;SDS011;36557;53.572;10.170;2022-10-16T03:11:41;3.65;;;1.50;;
50605;SDS011;36557;53.572;10.170;2022-10-16T03:14:07;4.03;;;1.55;;
50605;SDS011;36557;53.572;10.170;2022-10-16T03:16:32;4.03;;;1.40;;
50605;SDS011;36557;53.572;10.170;2022-10-16T03:18:58;3.35;;;1.35;;
50605;SDS011;36557;53.572;10.170;2022-10-16T03:21:24;3.08;;;1.13;;
50605;SDS011;36557;53.572;10.170;2022-10-16T03:23:49;2.63;;;1.65;;
50605;SDS011;36557;53.572;10.170;2022-10-16T03:26:15;4.47;;;1.45;;
50605;SDS011;36557;53.572;10.170;2022-10-16T03:28:41;1.92;;;1.15;;
50605;SDS011;36557;53.572;10.170;2022-10-16T03:31:07;3.45;;;1.58;;
50605;SDS011;36557;53.572;10.170;2022-10-16T03:33:33;4.47;;;1.25;;
50605;SDS011;36557;53.572;10.170;2022-10-16T03:35:59;5.93;;;1.40;;
50605;SDS011;36557;53.572;10.170;2022-10-16T03:38:25;4.03;;;1.38;;
50605;SDS011;36557;53.572;10.170;2022-10-16T03:40:51;4.25;;;1.48;;
50605;SDS011;36557;53.572;10.170;2022-10-16T03:43:16;4.25;;;1.40;;
50605;SDS011;36557;53.572;10.170;2022-10-16T03:45:42;5.18;;;1.42;;
50605;SDS011;36557;53.572;10.170;2022-10-16T03:48:08;6.72;;;1.10;;
50605;SDS011;36557;53.572;10.170;2022-10-16T03:50:33;3.70;;;1.10;;
50605;SDS011;36557;53.572;10.170;2022-10-16T03:52:59;5.03;;;1.20;;
50605;SDS011;36557;53.572;10.170;2022-10-16T03:55:25;5.00;;;1.38;;
50605;SDS011;36557;53.572;10.170;2022-10-16T03:57:50;2.65;;;1.20;;
50605;SDS011;36557;53.572;10.170;2022-10-16T04:00:16;4.20;;;1.10;;
50605;SDS011;36557;53.572;10.170;2022-10-16T04:02:42;5.50;;;1.27;;
50605;SDS011;36557;53.572;10.170;2022-10-16T04:05:07;3.00;;;1.20;;
50605;SDS011;36557;53.572;10.170;2022-10-16T04:07:33;20.95;;;2.15;;
50605;SDS011;36557;53.572;10.170;2022-10-16T04:09:59;5.03;;;1.20;;
50605;SDS011;36557;53.572;10.170;2022-10-16T04:12:25;2.63;;;1.20;;
50605;SDS011;36557;53.572;10.170;2022-10-16T04:14:51;2.45;;;1.30;;
50605;SDS011;36557;53.572;10.170;2022-10-16T04:17:17;4.22;;;1.17;;
50605;SDS011;36557;53.572;10.170;2022-10-16T04:19:43;2.67;;;1.05;;
50605;SDS011;36557;53.572;10.170;2022-10-16T04:22:08;2.63;;;1.30;;
50605;SDS011;36557;53.572;10.170;2022-10-16T04:24:34;4.20;;;1.38;;
50605;SDS011;36557;53.572;10.170;2022-10-16T04:27:00;2.53;;;1.10;;
50605;SDS011;36557;53.572;10.170;2022-10-16T04:29:25;3.70;;;1.20;;
50605;SDS011;36557;53.572;10.170;2022-10-16T04:31:51;2.78;;;1.30;;
50605;SDS011;36557;53.572;10.170;2022-10-16T04:34:17;2.58;;;0.90;;
50605;SDS011;36557;53.572;10.170;2022-10-16T04:36:43;3.47;;;1.30;;
50605;SDS011;36557;53.572;10.170;2022-10-16T04:39:08;3.97;;;1.25;;
50605;SDS011;36557;53.572;10.170;2022-10-16T04:41:34;5.93;;;1.58;;
50605;SDS011;36557;53.572;10.170;2022-10-16T04:44:00;2.95;;;1.30;;
50605;SDS011;36557;53.572;10.170;2022-10-16T04:46:25;2.65;;;1.20;;
50605;SDS011;36557;53.572;10.170;2022-10-16T04:48:51;4.53;;;1.20;;
50605;SDS011;36557;53.572;10.170;2022-10-16T04:51:17;2.95;;;1.10;;
50605;SDS011;36557;53.572;10.170;2022-10-16T04:53:43;1.90;;;0.93;;
50605;SDS011;36557;53.572;10.170;2022-10-16T04:56:09;2.38;;;1.23;;
50605;SDS011;36557;53.572;10.170;2022-10-16T04:58:35;4.60;;;1.33;;
50605;SDS011;36557;53.572;10.170;2022-10-16T05:01:00;3.55;;;1.30;;
50605;SDS011;36557;53.572;10.170;2022-10-16T05:03:26;5.13;;;1.00;;
50605;SDS011;36557;53.572;10.170;2022-10-16T05:05:52;3.75;;;1.00;;
50605;SDS011;36557;53.572;10.170;2022-10-16T05:08:18;3.50;;;1.08;;
50605;SDS011;36557;53.572;10.170;2022-10-16T05:10:44;3.55;;;1.40;;
50605;SDS011;36557;53.572;10.170;2022-10-16T05:13:10;3.45;;;1.30;;
50605;SDS011;36557;53.572;10.170;2022-10-16T05:15:36;4.32;;;1.58;;
50605;SDS011;36557;53.572;10.170;2022-10-16T05:18:02;4.78;;;1.40;;
50605;SDS011;36557;53.572;10.170;2022-10-16T05:20:28;5.38;;;1.52;;
50605;SDS011;36557;53.572;10.170;2022-10-16T05:22:54;2.97;;;1.10;;
50605;SDS011;36557;53.572;10.170;2022-10-16T05:25:19;4.32;;;1.20;;
50605;SDS011;36557;53.572;10.170;2022-10-16T05:27:48;3.05;;;1.23;;
50605;SDS011;36557;53.572;10.170;2022-10-16T05:30:15;2.50;;;1.20;;
50605;SDS011;36557;53.572;10.170;2022-10-16T05:32:41;2.88;;;1.70;;
50605;SDS011;36557;53.572;10.170;2022-10-16T05:35:10;6.10;;;1.77;;
50605;SDS011;36557;53.572;10.170;2022-10-16T05:37:36;3.60;;;1.30;;
50605;SDS011;36557;53.572;10.170;2022-10-16T05:40:02;2.75;;;1.30;;
50605;SDS011;36557;53.572;10.170;2022-10-16T05:42:30;5.32;;;1.40;;
50605;SDS011;36557;53.572;10.170;2022-10-16T05:44:55;3.80;;;1.40;;
50605;SDS011;36557;53.572;10.170;2022-10-16T05:47:21;4.20;;;1.20;;
50605;SDS011;36557;53.572;10.170;2022-10-16T05:49:47;3.15;;;1.40;;
50605;SDS011;36557;53.572;10.170;2022-10-16T05:52:13;4.38;;;1.45;;
50605;SDS011;36557;53.572;10.170;2022-10-16T05:54:38;2.72;;;1.60;;
50605;SDS011;36557;53.572;10.170;2022-10-16T05:57:04;5.75;;;1.55;;
50605;SDS011;36557;53.572;10.170;2022-10-16T05:59:30;4.25;;;1.60;;
50605;SDS011;36557;53.572;10.170;2022-10-16T06:01:56;7.80;;;1.38;;
50605;SDS011;36557;53.572;10.170;2022-10-16T06:04:22;4.32;;;1.67;;
50605;SDS011;36557;53.572;10.170;2022-10-16T06:06:48;3.10;;;1.35;;
50605;SDS011;36557;53.572;10.170;2022-10-16T06:09:14;5.47;;;1.42;;
50605;SDS011;36557;53.572;10.170;2022-10-16T06:11:39;4.70;;;1.60;;
50605;SDS011;36557;53.572;10.170;2022-10-16T06:14:05;4.03;;;1.60;;
50605;SDS011;36557;53.572;10.170;2022-10-16T06:16:34;8.73;;;1.30;;
50605;SDS011;36557;53.572;10.170;2022-10-16T06:19:01;6.53;;;1.70;;
50605;SDS011;36557;53.572;10.170;2022-10-16T06:21:29;4.25;;;1.55;;
50605;SDS011;36557;53.572;10.170;2022-10-16T06:23:55;5.90;;;1.48;;
50605;SDS011;36557;53.572;10.170;2022-10-16T06:26:23;4.03;;;1.55;;
50605;SDS011;36557;53.572;10.170;2022-10-16T06:28:54;5.10;;;1.42;;
50605;SDS011;36557;53.572;10.170;2022-10-16T06:31:20;5.45;;;1.65;;
50605;SDS011;36557;53.572;10.170;2022-10-16T06:33:49;5.85;;;1.40;;
50605;SDS011;36557;53.572;10.170;2022-10-16T06:36:16;3.63;;;1.30;;
50605;SDS011;36557;53.572;10.170;2022-10-16T06:38:42;4.75;;;1.30;;
50605;SDS011;36557;53.572;10.170;2022-10-16T06:41:12;4.13;;;1.20;;
50605;SDS011;36557;53.572;10.170;2022-10-16T06:43:40;4.95;;;1.58;;
50605;SDS011;36557;53.572;10.170;2022-10-16T06:46:06;8.20;;;1.42;;
50605;SDS011;36557;53.572;10.170;2022-10-16T06:48:34;5.38;;;1.40;;
50605;SDS011;36557;53.572;10.170;2022-10-16T06:51:02;4.75;;;1.23;;
50605;SDS011;36557;53.572;10.170;2022-10-16T06:53:29;5.03;;;1.42;;
50605;SDS011;36557;53.572;10.170;2022-10-16T06:55:56;4.05;;;1.30;;
50605;SDS011;36557;53.572;10.170;2022-10-16T06:58:22;4.15;;;1.30;;
50605;SDS011;36557;53.572;10.170;2022-10-16T07:00:48;5.20;;;1.42;;
50605;SDS011;36557;53.572;10.170;2022-10-16T07:03:20;4.10;;;1.42;;
50605;SDS011;36557;53.572;10.170;2022-10-16T07:05:46;4.50;;;1.52;;
50605;SDS011;36557;53.572;10.170;2022-10-16T07:08:11;6.25;;;1.67;;
50605;SDS011;36557;53.572;10.170;2022-10-16T07:10:37;7.15;;;1.50;;
50605;SDS011;36557;53.572;10.170;2022-10-16T07:13:03;4.72;;;1.58;;
50605;SDS011;36557;53.572;10.170;2022-10-16T07:15:28;6.05;;;1.70;;
50605;SDS011;36557;53.572;10.170;2022-10-16T07:17:54;8.98;;;2.00;;
50605;SDS011;36557;53.572;10.170;2022-10-16T07:20:20;12.70;;;7.78;;
50605;SDS011;36557;53.572;10.170;2022-10-16T07:22:45;6.47;;;1.90;;
50605;SDS011;36557;53.572;10.170;2022-10-16T07:25:11;3.78;;;1.80;;
50605;SDS011;36557;53.572;10.170;2022-10-16T07:27:37;3.53;;;1.73;;
50605;SDS011;36557;53.572;10.170;2022-10-16T07:30:03;4.00;;;1.65;;
50605;SDS011;36557;53.572;10.170;2022-10-16T07:32:30;6.32;;;1.83;;
50605;SDS011;36557;53.572;10.170;2022-10-16T07:34:56;5.10;;;1.65;;
50605;SDS011;36557;53.572;10.170;2022-10-16T07:37:22;3.78;;;1.60;;
50605;SDS011;36557;53.572;10.170;2022-10-16T07:39:48;3.03;;;1.70;;
50605;SDS011;36557;53.572;10.170;2022-10-16T07:42:13;5.60;;;1.67;;
50605;SDS011;36557;53.572;10.170;2022-10-16T07:44:39;4.82;;;1.90;;
50605;SDS011;36557;53.572;10.170;2022-10-16T07:47:05;4.78;;;1.60;;
50605;SDS011;36557;53.572;10.170;2022-10-16T07:49:31;5.80;;;2.00;;
50605;SDS011;36557;53.572;10.170;2022-10-16T07:51:57;3.38;;;1.90;;
50605;SDS011;36557;53.572;10.170;2022-10-16T07:54:23;3.33;;;1.60;;
50605;SDS011;36557;53.572;10.170;2022-10-16T07:56:49;3.78;;;1.80;;
50605;SDS011;36557;53.572;10.170;2022-10-16T07:59:14;6.47;;;1.80;;
50605;SDS011;36557;53.572;10.170;2022-10-16T08:01:40;3.22;;;1.83;;
50605;SDS011;36557;53.572;10.170;2022-10-16T08:04:07;3.38;;;1.75;;
50605;SDS011;36557;53.572;10.170;2022-10-16T08:06:37;5.00;;;1.90;;
50605;SDS011;36557;53.572;10.170;2022-10-16T08:09:04;7.13;;;1.85;;
50605;SDS011;36557;53.572;10.170;2022-10-16T08:11:30;3.40;;;2.25;;
50605;SDS011;36557;53.572;10.170;2022-10-16T08:13:56;3.03;;;1.88;;
50605;SDS011;36557;53.572;10.170;2022-10-16T08:16:22;5.03;;;1.90;;
50605;SDS011;36557;53.572;10.170;2022-10-16T08:18:47;3.70;;;1.90;;
50605;SDS011;36557;53.572;10.170;2022-10-16T08:21:14;5.43;;;1.67;;
50605;SDS011;36557;53.572;10.170;2022-10-16T08:23:41;3.63;;;1.67;;
50605;SDS011;36557;53.572;10.170;2022-10-16T08:26:07;5.47;;;2.10;;
50605;SDS011;36557;53.572;10.170;2022-10-16T08:28:34;5.57;;;2.00;;
50605;SDS011;36557;53.572;10.170;2022-10-16T08:31:13;6.80;;;1.80;;
50605;SDS011;36557;53.572;10.170;2022-10-16T08:33:40;12.05;;;5.93;;
50605;SDS011;36557;53.572;10.170;2022-10-16T08:36:08;5.47;;;1.95;;
50605;SDS011;36557;53.572;10.170;2022-10-16T08:38:36;5.63;;;1.80;;
50605;SDS011;36557;53.572;10.170;2022-10-16T08:46:20;2.95;;;1.60;;
50605;SDS011;36557;53.572;10.170;2022-10-16T08:48:57;3.90;;;1.58;;
50605;SDS011;36557;53.572;10.170;2022-10-16T08:51:31;2.67;;;1.50;;
50605;SDS011;36557;53.572;10.170;2022-10-16T08:54:04;2.65;;;1.40;;
50605;SDS011;36557;53.572;10.170;2022-10-16T08:56:31;4.35;;;1.35;;
50605;SDS011;36557;53.572;10.170;2022-10-16T08:58:58;6.32;;;1.30;;
50605;SDS011;36557;53.572;10.170;2022-10-16T09:01:25;4.22;;;1.33;;
50605;SDS011;36557;53.572;10.170;2022-10-16T09:09:36;6.40;;;1.30;;
50605;SDS011;36557;53.572;10.170;2022-10-16T09:12:19;3.58;;;1.45;;
50605;SDS011;36557;53.572;10.170;2022-10-16T09:20:51;4.25;;;1.20;;
50605;SDS011;36557;53.572;10.170;2022-10-16T09:23:28;2.55;;;1.23;;
50605;SDS011;36557;53.572;10.170;2022-10-16T09:25:55;2.78;;;1.20;;
50605;SDS011;36557;53.572;10.170;2022-10-16T09:28:23;5.18;;;1.10;;
50605;SDS011;36557;53.572;10.170;2022-10-16T09:30:49;3.72;;;1.55;;
50605;SDS011;36557;53.572;10.170;2022-10-16T09:33:15;2.63;;;0.70;;
50605;SDS011;36557;53.572;10.170;2022-10-16T09:35:45;1.98;;;1.00;;
50605;SDS011;36557;53.572;10.170;2022-10-16T09:41:01;2.80;;;1.20;;
50605;SDS011;36557;53.572;10.170;2022-10-16T09:43:57;2.53;;;0.90;;
50605;SDS011;36557;53.572;10.170;2022-10-16T09:46:29;2.78;;;1.20;;
50605;SDS011;36557;53.572;10.170;2022-10-16T09:48:59;3.63;;;1.40;;
50605;SDS011;36557;53.572;10.170;2022-10-16T09:51:27;1.52;;;0.90;;
50605;SDS011;36557;53.572;10.170;2022-10-16T09:54:26;2.45;;;1.10;;
50605;SDS011;36557;53.572;10.170;2022-10-16T09:56:45;3.30;;;0.90;;
50605;SDS011;36557;53.572;10.170;2022-10-16T09:59:23;4.18;;;1.13;;
50605;SDS011;36557;53.572;10.170;2022-10-16T10:01:51;3.05;;;0.90;;
50605;SDS011;36557;53.572;10.170;2022-10-16T10:04:18;3.22;;;0.90;;
50605;SDS011;36557;53.572;10.170;2022-10-16T10:09:22;4.05;;;0.70;;
50605;SDS011;36557;53.572;10.170;2022-10-16T10:12:02;1.63;;;0.77;;
50605;SDS011;36557;53.572;10.170;2022-10-16T10:14:52;2.33;;;0.77;;
50605;SDS011;36557;53.572;10.170;2022-10-16T10:17:23;4.20;;;0.98;;
50605;SDS011;36557;53.572;10.170;2022-10-16T10:22:55;1.55;;;0.80;;
50605;SDS011;36557;53.572;10.170;2022-10-16T10:25:33;3.08;;;1.02;;
50605;SDS011;36557;53.572;10.170;2022-10-16T10:36:34;11.88;;;5.30;;
50605;SDS011;36557;53.572;10.170;2022-10-16T10:44:52;2.60;;;0.90;;
50605;SDS011;36557;53.572;10.170;2022-10-16T10:47:31;2.95;;;1.02;;
50605;SDS011;36557;53.572;10.170;2022-10-16T10:50:26;3.15;;;0.88;;
50605;SDS011;36557;53.572;10.170;2022-10-16T11:07:34;4.00;;;1.00;;
50605;SDS011;36557;53.572;10.170;2022-10-16T11:10:19;4.90;;;0.70;;
50605;SDS011;36557;53.572;10.170;2022-10-16T11:13:04;4.55;;;0.77;;
50605;SDS011;36557;53.572;10.170;2022-10-16T11:15:50;1.90;;;0.77;;
50605;SDS011;36557;53.572;10.170;2022-10-16T11:18:38;3.63;;;0.60;;
50605;SDS011;36557;53.572;10.170;2022-10-16T11:21:25;4.43;;;0.70;;
50605;SDS011;36557;53.572;10.170;2022-10-16T11:24:19;3.13;;;0.82;;
50605;SDS011;36557;53.572;10.170;2022-10-16T11:26:47;3.35;;;0.50;;
50605;SDS011;36557;53.572;10.170;2022-10-16T11:29:19;2.08;;;0.65;;
50605;SDS011;36557;53.572;10.170;2022-10-16T11:31:51;4.10;;;0.80;;
50605;SDS011;36557;53.572;10.170;2022-10-16T11:34:24;2.95;;;0.80;;
50605;SDS011;36557;53.572;10.170;2022-10-16T11:37:05;4.88;;;0.80;;
50605;SDS011;36557;53.572;10.170;2022-10-16T11:39:38;2.17;;;0.80;;
50605;SDS011;36557;53.572;10.170;2022-10-16T11:42:07;3.38;;;0.93;;
50605;SDS011;36557;53.572;10.170;2022-10-16T11:44:56;2.55;;;0.65;;
50605;SDS011;36557;53.572;10.170;2022-10-16T11:47:35;3.17;;;0.73;;
50605;SDS011;36557;53.572;10.170;2022-10-16T11:50:28;4.05;;;0.98;;
50605;SDS011;36557;53.572;10.170;2022-10-16T11:56:11;4.05;;;1.20;;
50605;SDS011;36557;53.572;10.170;2022-10-16T11:58:50;2.67;;;0.82;;
50605;SDS011;36557;53.572;10.170;2022-10-16T12:07:32;7.45;;;2.22;;
50605;SDS011;36557;53.572;10.170;2022-10-16T12:09:32;3.67;;;0.82;;
50605;SDS011;36557;53.572;10.170;2022-10-16T12:12:01;3.13;;;0.90;;
50605;SDS011;36557;53.572;10.170;2022-10-16T12:17:22;3.67;;;0.95;;
50605;SDS011;36557;53.572;10.170;2022-10-16T12:20:00;2.10;;;0.85;;
50605;SDS011;36557;53.572;10.170;2022-10-16T12:22:56;4.05;;;1.00;;
50605;SDS011;36557;53.572;10.170;2022-10-16T12:30:40;4.75;;;0.82;;
50605;SDS011;36557;53.572;10.170;2022-10-16T12:33:25;2.08;;;0.90;;
50605;SDS011;36557;53.572;10.170;2022-10-16T12:35:56;4.13;;;0.88;;
50605;SDS011;36557;53.572;10.170;2022-10-16T12:38:34;4.13;;;0.95;;
50605;SDS011;36557;53.572;10.170;2022-10-16T12:41:33;3.35;;;0.95;;
50605;SDS011;36557;53.572;10.170;2022-10-16T12:44:03;2.28;;;0.57;;
50605;SDS011;36557;53.572;10.170;2022-10-16T12:46:38;4.47;;;1.00;;
50605;SDS011;36557;53.572;10.170;2022-10-16T12:49:17;2.60;;;0.70;;
50605;SDS011;36557;53.572;10.170;2022-10-16T12:52:03;2.50;;;0.80;;
50605;SDS011;36557;53.572;10.170;2022-10-16T12:54:35;4.68;;;1.10;;
50605;SDS011;36557;53.572;10.170;2022-10-16T12:57:09;5.07;;;0.90;;
50605;SDS011;36557;53.572;10.170;2022-10-16T13:30:26;3.90;;;1.10;;
50605;SDS011;36557;53.572;10.170;2022-10-16T13:33:00;3.45;;;0.80;;
50605;SDS011;36557;53.572;10.170;2022-10-16T13:35:31;3.58;;;1.58;;
50605;SDS011;36557;53.572;10.170;2022-10-16T13:40:36;2.00;;;0.70;;
50605;SDS011;36557;53.572;10.170;2022-10-16T13:43:01;6.32;;;1.25;;
50605;SDS011;36557;53.572;10.170;2022-10-16T13:45:27;2.83;;;0.93;;
50605;SDS011;36557;53.572;10.170;2022-10-16T13:48:06;2.70;;;0.80;;
50605;SDS011;36557;53.572;10.170;2022-10-16T13:50:34;2.08;;;0.70;;
50605;SDS011;36557;53.572;10.170;2022-10-16T13:53:07;7.60;;;1.00;;
50605;SDS011;36557;53.572;10.170;2022-10-16T13:55:38;4.07;;;0.70;;
50605;SDS011;36557;53.572;10.170;2022-10-16T13:58:05;3.83;;;0.80;;
50605;SDS011;36557;53.572;10.170;2022-10-16T14:00:37;5.38;;;1.10;;
50605;SDS011;36557;53.572;10.170;2022-10-16T14:03:04;2.92;;;0.93;;
50605;SDS011;36557;53.572;10.170;2022-10-16T14:05:36;5.70;;;1.13;;
50605;SDS011;36557;53.572;10.170;2022-10-16T14:08:09;4.25;;;1.15;;
50605;SDS011;36557;53.572;10.170;2022-10-16T14:10:36;5.38;;;0.85;;
50605;SDS011;36557;53.572;10.170;2022-10-16T14:13:05;2.60;;;0.82;;
50605;SDS011;36557;53.572;10.170;2022-10-16T14:15:33;4.97;;;0.77;;
50605;SDS011;36557;53.572;10.170;2022-10-16T14:18:00;2.72;;;0.90;;
50605;SDS011;36557;53.572;10.170;2022-10-16T14:20:28;4.72;;;1.10;;
50605;SDS011;36557;53.572;10.170;2022-10-16T14:23:03;4.88;;;0.80;;
50605;SDS011;36557;53.572;10.170;2022-10-16T14:25:43;3.72;;;0.82;;
50605;SDS011;36557;53.572;10.170;2022-10-16T14:28:19;4.22;;;1.30;;
50605;SDS011;36557;53.572;10.170;2022-10-16T14:30:59;5.13;;;1.08;;
50605;SDS011;36557;53.572;10.170;2022-10-16T14:36:05;3.67;;;1.27;;
50605;SDS011;36557;53.572;10.170;2022-10-16T14:38:36;3.50;;;1.20;;
50605;SDS011;36557;53.572;10.170;2022-10-16T14:41:05;6.75;;;1.20;;
50605;SDS011;36557;53.572;10.170;2022-10-16T14:43:40;6.00;;;1.80;;
50605;SDS011;36557;53.572;10.170;2022-10-16T14:46:17;4.53;;;0.90;;
50605;SDS011;36557;53.572;10.170;2022-10-16T14:48:50;7.00;;;1.27;;
50605;SDS011;36557;53.572;10.170;2022-10-16T14:51:19;4.38;;;1.60;;
50605;SDS011;36557;53.572;10.170;2022-10-16T14:53:46;4.85;;;1.70;;
50605;SDS011;36557;53.572;10.170;2022-10-16T14:56:18;5.53;;;2.10;;
50605;SDS011;36557;53.572;10.170;2022-10-16T14:58:46;4.53;;;1.40;;
50605;SDS011;36557;53.572;10.170;2022-10-16T15:01:12;6.40;;;0.93;;
50605;SDS011;36557;53.572;10.170;2022-10-16T15:03:38;5.70;;;1.85;;
50605;SDS011;36557;53.572;10.170;2022-10-16T15:06:08;7.53;;;1.20;;
50605;SDS011;36557;53.572;10.170;2022-10-16T15:11:04;3.03;;;1.30;;
50605;SDS011;36557;53.572;10.170;2022-10-16T15:13:35;4.25;;;1.30;;
50605;SDS011;36557;53.572;10.170;2022-10-16T15:16:01;4.95;;;1.23;;
50605;SDS011;36557;53.572;10.170;2022-10-16T15:18:27;5.10;;;1.42;;
50605;SDS011;36557;53.572;10.170;2022-10-16T15:20:53;4.78;;;1.40;;
50605;SDS011;36557;53.572;10.170;2022-10-16T15:23:20;7.47;;;1.50;;
50605;SDS011;36557;53.572;10.170;2022-10-16T15:25:54;4.22;;;1.27;;
50605;SDS011;36557;53.572;10.170;2022-10-16T15:28:21;5.20;;;1.20;;
50605;SDS011;36557;53.572;10.170;2022-10-16T15:30:54;5.32;;;0.98;;
50605;SDS011;36557;53.572;10.170;2022-10-16T15:33:23;5.88;;;1.35;;
50605;SDS011;36557;53.572;10.170;2022-10-16T15:35:52;4.50;;;0.93;;
50605;SDS011;36557;53.572;10.170;2022-10-16T15:38:19;6.43;;;1.23;;
50605;SDS011;36557;53.572;10.170;2022-10-16T15:40:46;6.32;;;1.33;;
50605;SDS011;36557;53.572;10.170;2022-10-16T15:43:13;5.88;;;1.30;;
50605;SDS011;36557;53.572;10.170;2022-10-16T15:45:39;4.97;;;1.10;;
50605;SDS011;36557;53.572;10.170;2022-10-16T15:48:05;4.60;;;1.48;;
50605;SDS011;36557;53.572;10.170;2022-10-16T15:50:31;7.43;;;1.80;;
50605;SDS011;36557;53.572;10.170;2022-10-16T15:52:57;6.40;;;2.58;;
50605;SDS011;36557;53.572;10.170;2022-10-16T15:55:23;3.75;;;1.90;;
50605;SDS011;36557;53.572;10.170;2022-10-16T15:57:49;7.47;;;1.80;;
50605;SDS011;36557;53.572;10.170;2022-10-16T16:00:16;5.05;;;1.67;;
50605;SDS011;36557;53.572;10.170;2022-10-16T16:02:49;6.82;;;1.30;;
50605;SDS011;36557;53.572;10.170;2022-10-16T16:05:16;5.78;;;2.65;;
50605;SDS011;36557;53.572;10.170;2022-10-16T16:07:42;6.40;;;1.40;;
50605;SDS011;36557;53.572;10.170;2022-10-16T16:10:08;6.88;;;1.90;;
50605;SDS011;36557;53.572;10.170;2022-10-16T16:12:36;4.65;;;1.83;;
50605;SDS011;36557;53.572;10.170;2022-10-16T16:15:03;9.73;;;1.65;;
50605;SDS011;36557;53.572;10.170;2022-10-16T16:17:30;6.50;;;1.40;;
50605;SDS011;36557;53.572;10.170;2022-10-16T16:19:57;4.28;;;1.30;;
50605;SDS011;36557;53.572;10.170;2022-10-16T16:22:22;6.68;;;1.38;;
50605;SDS011;36557;53.572;10.170;2022-10-16T16:24:48;6.60;;;1.42;;
50605;SDS011;36557;53.572;10.170;2022-10-16T16:27:14;10.20;;;1.25;;
50605;SDS011;36557;53.572;10.170;2022-10-16T16:29:40;6.32;;;1.48;;
50605;SDS011;36557;53.572;10.170;2022-10-16T16:32:06;4.35;;;1.50;;
50605;SDS011;36557;53.572;10.170;2022-10-16T16:34:32;7.38;;;1.20;;
50605;SDS011;36557;53.572;10.170;2022-10-16T16:36:57;10.60;;;1.88;;
50605;SDS011;36557;53.572;10.170;2022-10-16T16:39:23;15.98;;;5.45;;
50605;SDS011;36557;53.572;10.170;2022-10-16T16:41:49;27.40;;;16.77;;
50605;SDS011;36557;53.572;10.170;2022-10-16T16:44:16;10.30;;;4.80;;
50605;SDS011;36557;53.572;10.170;2022-10-16T16:46:42;11.60;;;4.55;;
50605;SDS011;36557;53.572;10.170;2022-10-16T16:49:09;6.28;;;3.33;;
50605;SDS011;36557;53.572;10.170;2022-10-16T16:51:36;6.82;;;2.63;;
50605;SDS011;36557;53.572;10.170;2022-10-16T16:54:03;5.22;;;1.98;;